Newport, KY (41071)

8:36 AM EDT on July 27, 2016 (GMT -0400)
RMR -- Newport | | Change Station

Elev 499 ft 39.08 °N, 84.50 °W | Updated 10 minutes ago

Partly Cloudy
Partly Cloudy
76.0 °F
Feels Like 76 °F
N
0.0
Wind Variable Wind from SE
Gusts 0.0 mph

Today
High -- | Low -- °F
--% Chance of Precip.
Yesterday
High -- | Low -- °F
Precip. -- in
Pressure 30.01 in
Visibility 8.0 miles
Clouds Few 500 ft
Heat Index 76 °F
Dew Point 74 °F
Humidity 93%
Rainfall 0.00 in
Snow Depth Not available.
6:34 AM 8:53 PM
Last Quarter, 43% visible
METAR KLUK 271153Z 00000KT 8SM FEW005 24/24 A3002 RMK AO2 SLP161 70083 T02390239 10244 20222 51008
Pressure 30.01 in
Visibility 8.0 miles
Clouds Few 500 ft
Heat Index 76 °F
Dew Point 74 °F
Humidity 93%
Rainfall 0.00 in
Snow Depth Not available.
6:34 AM 8:53 PM
Last Quarter, 43% visible
METAR KLUK 271153Z 00000KT 8SM FEW005 24/24 A3002 RMK AO2 SLP161 70083 T02390239 10244 20222 51008

10-Day Weather Forecast

Almanac

Astronomy

Jul. 27, 2016 Rise Set
Actual Time
Civil Twilight
Nautical Twilight
Astronomical Twilight
Moon
Length of Visible Light
Length of Day
Tomorrow will be .
, % of the Moon is Illuminated

Today's Extremes

State Highs State Lows

Community

WunderPhotos

Upload Photos

1,927,838 photos uploaded!

WunderBlog® & News

Nearby

Air Quality

  Air Quality AQ Index Pollutant
Not available.

Snow Depth

Station Depth Elevation

Earthquake Activity

City Distance Mag. Time & Date
Minimum magnitude displayed is 2.5.

Coastal Water Temperatures

Place Temperature

Stations

Nearby Weather Stations

Station Location Temp. Windchill Dew Point Humidity Wind Precip. Elev Updated Type
                   

Watches & Warnings

There are currently no watches in effect.